| time (UTC) | temp F | wind direction | speed MPH | gust MPH | rain 1hr in | rain 24hr in | rain mn in | humidity % | barometer mb |
| 20260506211002 | 63 | 232 | 4.0 | 13.0 | 0.00 | 0.00 | 0.00 | 81 | 1012.0 |
| 20260506210500 | 63 | 57 | 3.0 | 14.0 | 0.00 | 0.00 | 0.00 | 80 | 1012.1 |
| 20260506210000 | 63 | 27 | 3.0 | 14.0 | 0.00 | 0.00 | 0.00 | 80 | 1012.0 |
| 20260506205502 | 63 | 47 | 4.0 | 18.0 | 0.00 | 0.00 | 0.00 | 80 | 1012.0 |
| 20260506205249 | 63 | 55 | 4.0 | 18.0 | 0.00 | 0.00 | 0.00 | 80 | 1012.2 |
| 20260506204502 | 64 | 224 | 4.0 | 12.0 | 0.00 | 0.00 | 0.00 | 80 | 1012.2 |
| 20260506204002 | 64 | 224 | 3.0 | 12.0 | 0.00 | 0.00 | 0.00 | 79 | 1012.2 |
| 20260506203501 | 64 | 41 | 3.0 | 11.0 | 0.00 | 0.00 | 0.00 | 79 | 1012.1 |
| 20260506203000 | 64 | 50 | 3.0 | 19.0 | 0.00 | 0.00 | 0.00 | 79 | 1012.1 |
| 20260506202501 | 65 | 53 | 4.0 | 19.0 | 0.00 | 0.00 | 0.00 | 79 | 1012.1 |
| 20260506202247 | 65 | 10 | 4.0 | 12.0 | 0.00 | 0.00 | 0.00 | 79 | 1012.0 |
| 20260506201502 | 66 | 259 | 3.0 | 12.0 | 0.00 | 0.00 | 0.00 | 78 | 1011.9 |
| 20260506201002 | 66 | 210 | 3.0 | 8.0 | 0.00 | 0.00 | 0.00 | 77 | 1011.8 |
| 20260506200748 | 67 | 123 | 3.0 | 8.0 | 0.00 | 0.00 | 0.00 | 78 | 1011.7 |
| 20260506200002 | 67 | 49 | 3.0 | 7.0 | 0.00 | 0.00 | 0.00 | 78 | 1011.7 |
| 20260506195500 | 67 | 207 | 3.0 | 9.0 | 0.00 | 0.00 | 0.00 | 79 | 1011.8 |
| 20260506195002 | 67 | 31 | 3.0 | 10.0 | 0.00 | 0.00 | 0.00 | 79 | 1011.7 |
| 20260506194747 | 67 | 285 | 3.0 | 10.0 | 0.00 | 0.00 | 0.00 | 79 | 1011.7 |
| 20260506194001 | 68 | 38 | 3.0 | 10.0 | 0.00 | 0.00 | 0.00 | 79 | 1011.7 |
| 20260506193501 | 68 | 197 | 3.0 | 11.0 | 0.00 | 0.00 | 0.00 | 79 | 1011.7 |
| 20260506193245 | 68 | 333 | 3.0 | 11.0 | 0.00 | 0.00 | 0.00 | 79 | 1011.7 |
| 20260506192501 | 69 | 42 | 3.0 | 8.0 | 0.00 | 0.00 | 0.00 | 79 | 1011.7 |
| 20260506192003 | 69 | 54 | 2.0 | 8.0 | 0.00 | 0.00 | 0.00 | 78 | 1011.7 |
| 20260506191502 | 70 | 39 | 2.0 | 8.0 | 0.00 | 0.00 | 0.00 | 78 | 1011.7 |
| 20260506191246 | 70 | 187 | 2.0 | 6.0 | 0.00 | 0.00 | 0.00 | 77 | 1011.8 |
| 20260506190502 | 71 | 52 | 2.0 | 6.0 | 0.00 | 0.00 | 0.00 | 76 | 1011.8 |
| 20260506185959 | 71 | 228 | 2.0 | 8.0 | 0.00 | 0.00 | 0.00 | 76 | 1011.8 |
| 20260506185458 | 71 | 67 | 3.0 | 8.0 | 0.00 | 0.00 | 0.00 | 75 | 1011.6 |
| 20260506184958 | 71 | 29 | 3.0 | 8.0 | 0.00 | 0.00 | 0.00 | 76 | 1011.5 |
| 20260506184746 | 72 | 33 | 3.0 | 8.0 | 0.00 | 0.00 | 0.00 | 76 | 1011.5 |
| 20260506183959 | 72 | 41 | 2.0 | 8.0 | 0.00 | 0.00 | 0.00 | 75 | 1011.6 |
| 20260506183745 | 73 | 32 | 2.0 | 8.0 | 0.00 | 0.00 | 0.00 | 74 | 1011.6 |
| 20260506183240 | 72 | 175 | 2.0 | 8.0 | 0.00 | 0.00 | 0.00 | 76 | 1011.5 |
| 20260506182500 | 72 | 170 | 3.0 | 8.0 | 0.00 | 0.00 | 0.00 | 76 | 1011.4 |
| 20260506182241 | 71 | 75 | 2.0 | 7.0 | 0.00 | 0.00 | 0.00 | 77 | 1011.5 |
| 20260506181459 | 71 | 18 | 2.0 | 6.0 | 0.00 | 0.00 | 0.00 | 78 | 1011.5 |
| 20260506181244 | 70 | 184 | 3.0 | 6.0 | 0.00 | 0.00 | 0.00 | 79 | 1011.6 |
| 20260506180457 | 69 | 47 | 3.0 | 5.0 | 0.00 | 0.00 | 0.00 | 82 | 1011.3 |
| 20260506175957 | 69 | 47 | 3.0 | 6.0 | 0.00 | 0.00 | 0.00 | 80 | 1011.2 |
| 20260506175457 | 68 | 46 | 4.0 | 6.0 | 0.00 | 0.00 | 0.00 | 81 | 1011.2 |
| 20260506174954 | 68 | 35 | 3.0 | 6.0 | 0.00 | 0.00 | 0.00 | 81 | 1011.2 |
| 20260506174455 | 68 | 14 | 2.0 | 7.0 | 0.00 | 0.00 | 0.00 | 83 | 1011.1 |
| 20260506174030 | 67 | 79 | 3.0 | 7.0 | 0.00 | 0.00 | 0.00 | 83 | 1011.2 |
| 20260506174019 | 67 | 19 | 3.0 | 7.0 | 0.00 | 0.00 | 0.00 | 82 | 1011.0 |
| 20260506172955 | 67 | 353 | 4.0 | 9.0 | 0.00 | 0.00 | 0.00 | 82 | 1011.4 |
| 20260506172450 | 67 | 49 | 3.0 | 9.0 | 0.00 | 0.00 | 0.00 | 83 | 1011.4 |
| 20260506171951 | 66 | 27 | 3.0 | 7.0 | 0.00 | 0.00 | 0.00 | 84 | 1011.3 |
| 20260506171451 | 65 | 49 | 4.0 | 12.0 | 0.00 | 0.00 | 0.00 | 84 | 1011.5 |
| 20260506170951 | 64 | 345 | 4.0 | 12.0 | 0.00 | 0.00 | 0.00 | 86 | 1011.4 |
| 20260506170450 | 64 | 11 | 4.0 | 10.0 | 0.00 | 0.00 | 0.00 | 86 | 1011.4 |
| 20260506165952 | 64 | 84 | 4.0 | 9.0 | 0.00 | 0.00 | 0.00 | 86 | 1011.6 |
| 20260506165453 | 63 | 80 | 5.0 | 13.0 | 0.00 | 0.00 | 0.00 | 89 | 1011.4 |
| 20260506164945 | 62 | 30 | 6.0 | 26.0 | 0.00 | 0.00 | 0.00 | 90 | 1011.7 |
| 20260506164445 | 62 | 21 | 6.0 | 26.0 | 0.00 | 0.00 | 0.00 | 91 | 1012.0 |
| 20260506163946 | 62 | 43 | 6.0 | 11.0 | 0.00 | 0.00 | 0.00 | 92 | 1012.1 |
| 20260506163443 | 62 | 28 | 6.0 | 11.0 | 0.00 | 0.00 | 0.00 | 92 | 1012.3 |
| 20260506162940 | 61 | 14 | 6.0 | 12.0 | 0.00 | 0.00 | 0.00 | 94 | 1012.1 |
| 20260506162439 | 61 | 45 | 5.0 | 12.0 | 0.00 | 0.00 | 0.00 | 95 | 1011.9 |
| 20260506161937 | 60 | 34 | 5.0 | 10.0 | 0.00 | 0.00 | 0.00 | 94 | 1012.1 |
| 20260506161438 | 60 | 37 | 5.0 | 10.0 | 0.00 | 0.00 | 0.00 | 94 | 1012.7 |
| 20260506161220 | 61 | 60 | 4.0 | 10.0 | 0.00 | 0.00 | 0.00 | 94 | 1012.9 |
| 20260506160717 | 61 | 102 | 5.0 | 13.0 | 0.00 | 0.00 | 0.00 | 94 | 1013.2 |
| 20260506155937 | 61 | 21 | 5.0 | 13.0 | 0.00 | 0.00 | 0.00 | 94 | 1013.0 |
| 20260506155436 | 62 | 41 | 6.0 | 10.0 | 0.00 | 0.00 | 0.00 | 94 | 1012.9 |
| 20260506154937 | 62 | 41 | 5.0 | 11.0 | 0.00 | 0.00 | 0.00 | 94 | 1012.9 |
| 20260506154437 | 62 | 43 | 5.0 | 11.0 | 0.00 | 0.00 | 0.00 | 93 | 1012.9 |
| 20260506154220 | 63 | 45 | 5.0 | 14.0 | 0.00 | 0.00 | 0.00 | 92 | 1012.8 |
| 20260506153438 | 64 | 41 | 5.0 | 14.0 | 0.00 | 0.00 | 0.00 | 92 | 1012.7 |
| 20260506152938 | 65 | 47 | 5.0 | 11.0 | 0.00 | 0.00 | 0.00 | 91 | 1012.5 |
| 20260506152437 | 65 | 236 | 5.0 | 11.0 | 0.00 | 0.00 | 0.00 | 91 | 1012.3 |
| 20260506152222 | 65 | 288 | 6.0 | 10.0 | 0.00 | 0.00 | 0.00 | 91 | 1011.8 |
| 20260506151438 | 65 | 37 | 6.0 | 12.0 | 0.00 | 0.00 | 0.00 | 91 | 1011.6 |
| 20260506150934 | 65 | 41 | 6.0 | 12.0 | 0.00 | 0.00 | 0.00 | 91 | 1011.7 |
| 20260506150432 | 66 | 53 | 5.0 | 10.0 | 0.00 | 0.00 | 0.00 | 90 | 1011.6 |
| 20260506145932 | 67 | 51 | 4.0 | 10.0 | 0.00 | 0.00 | 0.00 | 90 | 1011.4 |
| 20260506145432 | 68 | 48 | 4.0 | 9.0 | 0.00 | 0.00 | 0.00 | 89 | 1011.1 |
| 20260506144932 | 70 | 22 | 4.0 | 9.0 | 0.00 | 0.00 | 0.00 | 88 | 1010.8 |
| 20260506144711 | 73 | 39 | 4.0 | 7.0 | 0.00 | 0.00 | 0.00 | 86 | 1010.5 |
| 20260506143930 | 77 | 6 | 2.0 | 7.0 | 0.00 | 0.00 | 0.00 | 80 | 1010.5 |
| 20260506143429 | 78 | 0 | 1.0 | 3.0 | 0.00 | 0.00 | 0.00 | 86 | 1010.1 |
| 20260506143152 | 78 | 63 | 1.0 | 3.0 | 0.00 | 0.00 | 0.00 | 87 | 1009.8 |
| 20260506142432 | 78 | 117 | 1.0 | 3.0 | 0.00 | 0.00 | 0.00 | 87 | 1009.7 |
| 20260506141931 | 78 | 152 | 2.0 | 4.0 | 0.00 | 0.00 | 0.00 | 88 | 1009.7 |
| 20260506141430 | 78 | 19 | 2.0 | 4.0 | 0.00 | 0.00 | 0.00 | 88 | 1009.5 |
| 20260506140930 | 77 | 147 | 1.0 | 4.0 | 0.00 | 0.00 | 0.00 | 90 | 1009.5 |
| 20260506140430 | 77 | 16 | 2.0 | 4.0 | 0.00 | 0.00 | 0.00 | 89 | 1009.7 |
| 20260506135930 | 76 | 195 | 2.0 | 6.0 | 0.00 | 0.00 | 0.00 | 90 | 1009.9 |
| 20260506135430 | 76 | 320 | 2.0 | 6.0 | 0.00 | 0.00 | 0.00 | 90 | 1009.6 |
| 20260506134930 | 76 | 126 | 2.0 | 5.0 | 0.00 | 0.00 | 0.00 | 90 | 1009.4 |
| 20260506134430 | 76 | 106 | 2.0 | 4.0 | 0.00 | 0.00 | 0.00 | 91 | 1009.3 |
| 20260506133930 | 77 | 137 | 2.0 | 4.0 | 0.00 | 0.00 | 0.00 | 90 | 1009.4 |
| 20260506133430 | 77 | 173 | 1.0 | 3.0 | 0.00 | 0.00 | 0.00 | 90 | 1009.5 |
| 20260506132931 | 76 | 89 | 1.0 | 3.0 | 0.00 | 0.00 | 0.00 | 90 | 1009.3 |
| 20260506132431 | 76 | 101 | 2.0 | 4.0 | 0.00 | 0.00 | 0.00 | 91 | 1009.2 |
| 20260506131930 | 75 | 297 | 1.0 | 4.0 | 0.00 | 0.00 | 0.00 | 93 | 1009.1 |
| 20260506131654 | 75 | 321 | 2.0 | 5.0 | 0.00 | 0.00 | 0.00 | 93 | 1009.1 |
| 20260506131154 | 75 | 143 | 2.0 | 5.0 | 0.00 | 0.00 | 0.00 | 94 | 1009.1 |
| 20260506130430 | 75 | 22 | 1.0 | 2.0 | 0.00 | 0.00 | 0.00 | 94 | 1009.1 |
| 20260506125929 | 74 | 296 | 1.0 | 4.0 | 0.00 | 0.00 | 0.00 | 95 | 1009.1 |
| 20260506125430 | 74 | 137 | 2.0 | 4.0 | 0.00 | 0.00 | 0.00 | 95 | 1009.0 |
| 20260506124930 | 74 | 306 | 2.0 | 4.0 | 0.00 | 0.00 | 0.00 | 95 | 1009.0 |
| 20260506124430 | 74 | 340 | 2.0 | 4.0 | 0.00 | 0.00 | 0.00 | 95 | 1008.9 |
| 20260506124155 | 74 | 86 | 2.0 | 4.0 | 0.00 | 0.00 | 0.00 | 95 | 1008.9 |
| 20260506123655 | 74 | 156 | 2.0 | 4.0 | 0.00 | 0.00 | 0.00 | 95 | 1008.8 |
| 20260506122930 | 74 | 156 | 1.0 | 3.0 | 0.00 | 0.00 | 0.00 | 95 | 1008.9 |
| 20260506122433 | 74 | 0 | 1.0 | 3.0 | 0.00 | 0.00 | 0.00 | 95 | 1008.8 |
| 20260506121930 | 74 | 133 | 1.0 | 3.0 | 0.00 | 0.00 | 0.00 | 95 | 1008.8 |
| 20260506121430 | 74 | 114 | 1.0 | 3.0 | 0.00 | 0.00 | 0.00 | 94 | 1008.8 |
| 20260506120930 | 74 | 125 | 1.0 | 3.0 | 0.00 | 0.00 | 0.00 | 94 | 1008.8 |
| 20260506120429 | 74 | 129 | 1.0 | 2.0 | 0.00 | 0.00 | 0.00 | 94 | 1008.8 |
| 20260506115930 | 74 | 114 | 1.0 | 2.0 | 0.00 | 0.00 | 0.00 | 94 | 1008.7 |
| 20260506115925 | 74 | 231 | 1.0 | 2.0 | 0.00 | 0.00 | 0.00 | 94 | 1008.6 |
| 20260506114930 | 74 | 0 | 1.0 | 2.0 | 0.00 | 0.00 | 0.00 | 94 | 1008.7 |
| 20260506114430 | 74 | 316 | 1.0 | 2.0 | 0.00 | 0.00 | 0.00 | 94 | 1008.7 |
| 20260506113930 | 74 | 140 | 1.0 | 3.0 | 0.00 | 0.00 | 0.00 | 94 | 1008.7 |
| 20260506113430 | 74 | 197 | 1.0 | 3.0 | 0.00 | 0.00 | 0.00 | 94 | 1008.8 |
| 20260506112930 | 74 | 0 | 1.0 | 2.0 | 0.00 | 0.00 | 0.00 | 94 | 1008.8 |
| 20260506112431 | 74 | 251 | 0.0 | 2.0 | 0.00 | 0.00 | 0.00 | 94 | 1008.8 |
| 20260506111930 | 74 | 127 | 0.0 | 2.0 | 0.00 | 0.00 | 0.00 | 94 | 1008.8 |
| 20260506111430 | 74 | 0 | 1.0 | 2.0 | 0.00 | 0.00 | 0.00 | 93 | 1008.8 |
| 20260506110929 | 74 | 282 | 1.0 | 2.0 | 0.00 | 0.00 | 0.00 | 93 | 1008.7 |
| 20260506110430 | 75 | 195 | 1.0 | 2.0 | 0.00 | 0.00 | 0.00 | 93 | 1008.7 |
| 20260506105930 | 75 | 273 | 1.0 | 2.0 | 0.00 | 0.00 | 0.00 | 93 | 1008.7 |
| 20260506105430 | 75 | 0 | 1.0 | 2.0 | 0.00 | 0.00 | 0.00 | 93 | 1008.6 |
| 20260506104930 | 75 | 311 | 1.0 | 5.0 | 0.00 | 0.00 | 0.00 | 93 | 1008.6 |
| 20260506104429 | 75 | 275 | 2.0 | 5.0 | 0.00 | 0.00 | 0.00 | 93 | 1008.6 |
| 20260506103930 | 75 | 171 | 1.0 | 3.0 | 0.00 | 0.00 | 0.00 | 93 | 1008.5 |
| 20260506103429 | 75 | 154 | 1.0 | 3.0 | 0.00 | 0.00 | 0.00 | 93 | 1008.4 |
| 20260506102929 | 75 | 192 | 1.0 | 3.0 | 0.00 | 0.00 | 0.00 | 93 | 1008.4 |
| 20260506102430 | 75 | 224 | 2.0 | 4.0 | 0.00 | 0.00 | 0.00 | 92 | 1008.3 |
| 20260506101930 | 75 | 174 | 2.0 | 4.0 | 0.00 | 0.00 | 0.00 | 92 | 1008.3 |
| 20260506101430 | 75 | 272 | 1.0 | 3.0 | 0.00 | 0.00 | 0.00 | 92 | 1008.3 |
| 20260506100930 | 75 | 30 | 1.0 | 3.0 | 0.00 | 0.00 | 0.00 | 92 | 1008.3 |
| 20260506100430 | 75 | 282 | 1.0 | 3.0 | 0.00 | 0.00 | 0.00 | 92 | 1008.3 |
| 20260506100159 | 75 | 58 | 2.0 | 4.0 | 0.00 | 0.00 | 0.00 | 92 | 1008.4 |
| 20260506095658 | 75 | 246 | 2.0 | 4.0 | 0.00 | 0.00 | 0.00 | 92 | 1008.2 |
| 20260506095159 | 75 | 354 | 2.0 | 5.0 | 0.00 | 0.00 | 0.00 | 92 | 1008.1 |
| 20260506094430 | 75 | 352 | 2.0 | 5.0 | 0.00 | 0.00 | 0.00 | 92 | 1008.1 |
| 20260506093930 | 75 | 254 | 2.0 | 6.0 | 0.00 | 0.00 | 0.00 | 92 | 1008.0 |
| 20260506093429 | 75 | 226 | 2.0 | 6.0 | 0.00 | 0.00 | 0.00 | 92 | 1007.9 |
| 20260506092930 | 75 | 222 | 2.0 | 5.0 | 0.00 | 0.00 | 0.00 | 92 | 1007.9 |
| 20260506092431 | 75 | 149 | 2.0 | 5.0 | 0.00 | 0.00 | 0.00 | 92 | 1007.9 |
| 20260506091930 | 75 | 98 | 1.0 | 4.0 | 0.00 | 0.00 | 0.00 | 92 | 1007.8 |
| 20260506091430 | 75 | 303 | 2.0 | 5.0 | 0.00 | 0.00 | 0.00 | 92 | 1007.8 |
| 20260506091158 | 75 | 267 | 2.0 | 5.0 | 0.00 | 0.00 | 0.00 | 92 | 1007.7 |
| 20260506090657 | 75 | 84 | 2.0 | 5.0 | 0.00 | 0.00 | 0.00 | 91 | 1007.7 |
| 20260506085932 | 75 | 332 | 2.0 | 4.0 | 0.00 | 0.00 | 0.00 | 91 | 1007.6 |
| 20260506085430 | 75 | 215 | 2.0 | 4.0 | 0.00 | 0.00 | 0.00 | 91 | 1007.7 |
| 20260506085158 | 75 | 293 | 2.0 | 4.0 | 0.00 | 0.00 | 0.00 | 91 | 1007.8 |
| 20260506084657 | 75 | 263 | 2.0 | 7.0 | 0.00 | 0.00 | 0.00 | 91 | 1007.8 |
| 20260506083930 | 75 | 268 | 2.0 | 7.0 | 0.00 | 0.00 | 0.00 | 91 | 1007.8 |
| 20260506083655 | 75 | 199 | 2.0 | 5.0 | 0.00 | 0.00 | 0.00 | 91 | 1007.7 |
| 20260506082930 | 75 | 302 | 2.0 | 5.0 | 0.00 | 0.00 | 0.00 | 91 | 1007.6 |
| 20260506082431 | 75 | 230 | 2.0 | 4.0 | 0.00 | 0.00 | 0.00 | 91 | 1007.6 |
| 20260506081930 | 75 | 154 | 2.0 | 6.0 | 0.00 | 0.00 | 0.00 | 91 | 1007.5 |
| 20260506081430 | 75 | 246 | 3.0 | 6.0 | 0.00 | 0.00 | 0.00 | 91 | 1007.5 |
| 20260506080930 | 75 | 237 | 4.0 | 9.0 | 0.00 | 0.00 | 0.00 | 91 | 1007.5 |
| 20260506080430 | 75 | 213 | 3.0 | 9.0 | 0.00 | 0.00 | 0.00 | 91 | 1007.6 |
| 20260506073430 | 75 | 286 | 3.0 | 8.0 | 0.00 | 0.00 | 0.00 | 91 | 1007.8 |
| 20260506072930 | 75 | 275 | 3.0 | 9.0 | 0.00 | 0.00 | 0.00 | 91 | 1007.8 |
| 20260506072429 | 75 | 217 | 4.0 | 9.0 | 0.00 | 0.00 | 0.00 | 91 | 1007.8 |
| 20260506071929 | 75 | 220 | 4.0 | 8.0 | 0.00 | 0.00 | 0.00 | 91 | 1007.8 |
| 20260506071428 | 75 | 224 | 4.0 | 8.0 | 0.00 | 0.00 | 0.00 | 91 | 1007.8 |
| 20260506071208 | 75 | 13 | 3.0 | 8.0 | 0.00 | 0.00 | 0.00 | 91 | 1007.9 |
| 20260506070429 | 75 | 217 | 3.0 | 6.0 | 0.00 | 0.00 | 0.00 | 92 | 1007.9 |
| 20260506062430 | 75 | 237 | 2.0 | 7.0 | 0.00 | 0.00 | 0.00 | 91 | 1007.8 |
| 20260506061929 | 76 | 269 | 2.0 | 7.0 | 0.00 | 0.00 | 0.00 | 92 | 1007.8 |
| 20260506061717 | 76 | 353 | 2.0 | 6.0 | 0.00 | 0.00 | 0.00 | 92 | 1007.7 |
| 20260506060930 | 76 | 287 | 2.0 | 5.0 | 0.00 | 0.00 | 0.00 | 92 | 1007.6 |
| 20260506060430 | 76 | 234 | 2.0 | 5.0 | 0.00 | 0.00 | 0.00 | 92 | 1007.7 |
| 20260506051402 | 76 | 185 | 3.0 | 7.0 | 0.00 | 0.00 | 0.00 | 91 | 1008.0 |
| 20260506050902 | 76 | 272 | 3.0 | 6.0 | 0.00 | 0.00 | 0.00 | 91 | 1008.0 |
| 20260506050402 | 76 | 134 | 2.0 | 5.0 | 0.00 | 0.00 | 0.00 | 91 | 1007.8 |
| 20260506050133 | 76 | 290 | 2.0 | 5.0 | 0.00 | 0.00 | 0.00 | 91 | 1007.8 |
| 20260506044902 | 76 | 268 | 3.0 | 7.0 | 0.00 | 0.00 | 0.00 | 91 | 1007.9 |
| 20260506044402 | 76 | 321 | 3.0 | 7.0 | 0.00 | 0.00 | 0.00 | 91 | 1008.0 |
| 20260506043901 | 76 | 165 | 2.0 | 6.0 | 0.00 | 0.00 | 0.00 | 91 | 1007.9 |
| 20260506043401 | 76 | 166 | 2.0 | 6.0 | 0.00 | 0.00 | 0.00 | 90 | 1007.9 |
| 20260506042901 | 76 | 187 | 2.0 | 6.0 | 0.00 | 0.00 | 0.00 | 90 | 1007.8 |
| 20260506042402 | 76 | 295 | 2.0 | 4.0 | 0.00 | 0.00 | 0.00 | 90 | 1007.8 |
| 20260506041905 | 76 | 182 | 2.0 | 7.0 | 0.00 | 0.00 | 0.00 | 90 | 1007.8 |
| 20260506041402 | 76 | 270 | 2.0 | 7.0 | 0.00 | 0.00 | 0.00 | 90 | 1007.8 |
| 20260506040902 | 76 | 231 | 2.0 | 4.0 | 0.00 | 0.00 | 0.00 | 90 | 1007.8 |
| 20260506040409 | 76 | 249 | 2.0 | 3.0 | 0.00 | 0.00 | 0.00 | 89 | 1007.5 |
| 20260506040401 | 76 | 139 | 2.0 | 4.0 | 0.00 | 0.00 | 0.00 | 89 | 1007.7 |
| 20260506035403 | 76 | 207 | 2.0 | 4.0 | 0.00 | 0.00 | 0.00 | 89 | 1007.6 |
| 20260506034902 | 76 | 54 | 2.0 | 4.0 | 0.00 | 0.00 | 0.00 | 89 | 1007.4 |
| 20260506034403 | 76 | 174 | 2.0 | 5.0 | 0.00 | 0.00 | 0.00 | 89 | 1007.4 |
| 20260506033901 | 76 | 283 | 2.0 | 5.0 | 0.00 | 0.00 | 0.00 | 88 | 1007.3 |
| 20260506033402 | 76 | 95 | 2.0 | 7.0 | 0.00 | 0.00 | 0.00 | 88 | 1007.3 |
| 20260506032900 | 77 | 72 | 2.0 | 7.0 | 0.00 | 0.00 | 0.00 | 88 | 1007.2 |
| 20260506032403 | 77 | 93 | 2.0 | 7.0 | 0.00 | 0.00 | 0.00 | 88 | 1007.2 |
| 20260506031901 | 77 | 212 | 3.0 | 7.0 | 0.00 | 0.00 | 0.00 | 88 | 1007.2 |
| 20260506031643 | 77 | 193 | 2.0 | 7.0 | 0.00 | 0.00 | 0.00 | 88 | 1007.1 |
| 20260506030901 | 77 | 106 | 3.0 | 7.0 | 0.00 | 0.00 | 0.00 | 88 | 1007.0 |
| 20260506030401 | 77 | 53 | 3.0 | 6.0 | 0.00 | 0.00 | 0.00 | 88 | 1007.0 |
| 20260506025900 | 77 | 298 | 3.0 | 6.0 | 0.00 | 0.00 | 0.00 | 87 | 1007.0 |
| 20260506025402 | 77 | 223 | 2.0 | 6.0 | 0.00 | 0.00 | 0.00 | 87 | 1007.0 |
| 20260506024902 | 77 | 57 | 2.0 | 5.0 | 0.00 | 0.00 | 0.00 | 87 | 1006.9 |
| 20260506024401 | 77 | 149 | 2.0 | 5.0 | 0.00 | 0.00 | 0.00 | 87 | 1006.7 |
| 20260506023901 | 77 | 241 | 2.0 | 5.0 | 0.00 | 0.00 | 0.00 | 87 | 1006.6 |
| 20260506023402 | 78 | 119 | 2.0 | 4.0 | 0.00 | 0.00 | 0.00 | 86 | 1006.5 |
| 20260506022902 | 78 | 196 | 2.0 | 5.0 | 0.00 | 0.00 | 0.00 | 86 | 1006.4 |
| 20260506022402 | 78 | 270 | 2.0 | 5.0 | 0.00 | 0.00 | 0.00 | 85 | 1006.3 |
| 20260506021902 | 78 | 65 | 1.0 | 3.0 | 0.00 | 0.00 | 0.00 | 84 | 1006.1 |
| 20260506021402 | 78 | 134 | 1.0 | 3.0 | 0.00 | 0.00 | 0.00 | 84 | 1006.1 |
| 20260506020901 | 78 | 99 | 2.0 | 3.0 | 0.00 | 0.00 | 0.00 | 83 | 1006.0 |
| 20260506020402 | 78 | 48 | 2.0 | 4.0 | 0.00 | 0.00 | 0.00 | 83 | 1005.8 |
| 20260506015906 | 79 | 307 | 1.0 | 3.0 | 0.00 | 0.00 | 0.00 | 83 | 1005.8 |
| 20260506015902 | 78 | 105 | 1.0 | 4.0 | 0.00 | 0.00 | 0.00 | 83 | 1005.8 |
| 20260506014902 | 79 | 295 | 1.0 | 3.0 | 0.00 | 0.00 | 0.00 | 82 | 1005.8 |
| 20260506014634 | 79 | 152 | 1.0 | 4.0 | 0.00 | 0.00 | 0.00 | 82 | 1005.8 |
| 20260506013902 | 79 | 137 | 2.0 | 4.0 | 0.00 | 0.00 | 0.00 | 81 | 1005.7 |
| 20260506013402 | 79 | 150 | 2.0 | 4.0 | 0.00 | 0.00 | 0.00 | 81 | 1005.8 |
| 20260506012902 | 80 | 37 | 2.0 | 5.0 | 0.00 | 0.00 | 0.00 | 80 | 1005.7 |
| 20260506012401 | 80 | 71 | 2.0 | 5.0 | 0.00 | 0.00 | 0.00 | 80 | 1005.6 |
| 20260506012129 | 80 | 183 | 2.0 | 3.0 | 0.00 | 0.00 | 0.00 | 80 | 1005.6 |
| 20260506011402 | 80 | 271 | 1.0 | 3.0 | 0.00 | 0.00 | 0.00 | 79 | 1005.6 |
| 20260506011133 | 81 | 58 | 1.0 | 3.0 | 0.00 | 0.00 | 0.00 | 79 | 1005.7 |
| 20260506010402 | 81 | 290 | 1.0 | 3.0 | 0.00 | 0.00 | 0.00 | 78 | 1005.8 |
| 20260506005904 | 81 | 161 | 1.0 | 3.0 | 0.00 | 0.00 | 0.00 | 78 | 1005.7 |
| 20260506005402 | 81 | 274 | 1.0 | 4.0 | 0.00 | 0.00 | 0.00 | 77 | 1005.7 |
| 20260506004902 | 82 | 170 | 1.0 | 4.0 | 0.00 | 0.00 | 0.00 | 76 | 1005.7 |
| 20260506004402 | 82 | 161 | 1.0 | 3.0 | 0.00 | 0.00 | 0.00 | 76 | 1005.6 |
| 20260506003901 | 82 | 155 | 1.0 | 5.0 | 0.00 | 0.00 | 0.00 | 76 | 1005.6 |
| 20260506003640 | 82 | 138 | 2.0 | 5.0 | 0.00 | 0.00 | 0.00 | 76 | 1005.6 |
| 20260506002902 | 82 | 55 | 2.0 | 5.0 | 0.00 | 0.00 | 0.00 | 76 | 1005.6 |
| 20260506002401 | 82 | 211 | 2.0 | 5.0 | 0.00 | 0.00 | 0.00 | 75 | 1005.6 |
| 20260506001901 | 82 | 256 | 2.0 | 5.0 | 0.00 | 0.00 | 0.00 | 75 | 1005.7 |
| 20260506001401 | 82 | 56 | 2.0 | 5.0 | 0.00 | 0.00 | 0.00 | 74 | 1005.7 |
| 20260506000936 | 82 | 324 | 2.0 | 5.0 | 0.00 | 0.00 | 0.00 | 74 | 1005.7 |
| 20260506000926 | 82 | 346 | 2.0 | 5.0 | 0.00 | 0.00 | 0.00 | 74 | 1005.7 |
| 20260505235902 | 83 | 67 | 2.0 | 5.0 | 0.00 | 0.00 | 0.00 | 74 | 1005.7 |
| 20260505235401 | 83 | 126 | 1.0 | 5.0 | 0.00 | 0.00 | 0.00 | 73 | 1005.6 |
| 20260505234901 | 83 | 235 | 2.0 | 6.0 | 0.00 | 0.00 | 0.00 | 74 | 1005.5 |
| 20260505234400 | 83 | 209 | 2.0 | 8.0 | 0.00 | 0.00 | 0.00 | 73 | 1005.4 |
| 20260505233900 | 83 | 119 | 3.0 | 8.0 | 0.00 | 0.00 | 0.00 | 72 | 1005.4 |
| 20260505233400 | 83 | 292 | 3.0 | 6.0 | 0.00 | 0.00 | 0.00 | 73 | 1005.3 |
| 20260505232901 | 83 | 216 | 3.0 | 11.0 | 0.00 | 0.00 | 0.00 | 73 | 1005.2 |
| 20260505232644 | 83 | 274 | 3.0 | 11.0 | 0.00 | 0.00 | 0.00 | 72 | 1005.2 |
| 20260505231901 | 84 | 147 | 2.0 | 7.0 | 0.00 | 0.00 | 0.00 | 71 | 1005.1 |
| 20260505231401 | 84 | 209 | 2.0 | 6.0 | 0.00 | 0.00 | 0.00 | 72 | 1005.1 |
| 20260505230901 | 84 | 234 | 2.0 | 6.0 | 0.00 | 0.00 | 0.00 | 71 | 1005.2 |
| 20260505230401 | 84 | 177 | 2.0 | 6.0 | 0.00 | 0.00 | 0.00 | 72 | 1005.1 |
| 20260505225901 | 83 | 263 | 2.0 | 6.0 | 0.00 | 0.00 | 0.00 | 71 | 1005.1 |
| 20260505225400 | 83 | 133 | 2.0 | 5.0 | 0.00 | 0.00 | 0.00 | 72 | 1005.1 |
| 20260505224901 | 83 | 169 | 2.0 | 6.0 | 0.00 | 0.00 | 0.00 | 72 | 1005.1 |
| 20260505224401 | 84 | 176 | 2.0 | 6.0 | 0.00 | 0.00 | 0.00 | 72 | 1005.1 |
| 20260505224141 | 84 | 0 | 2.0 | 9.0 | 0.00 | 0.00 | 0.00 | 72 | 1005.1 |
| 20260505223401 | 84 | 239 | 3.0 | 9.0 | 0.00 | 0.00 | 0.00 | 73 | 1005.1 |
| 20260505222902 | 84 | 134 | 3.0 | 8.0 | 0.00 | 0.00 | 0.00 | 71 | 1005.0 |
| 20260505222643 | 84 | 238 | 3.0 | 7.0 | 0.00 | 0.00 | 0.00 | 71 | 1004.9 |
| 20260505221902 | 84 | 175 | 3.0 | 7.0 | 0.00 | 0.00 | 0.00 | 71 | 1005.0 |
| 20260505221400 | 85 | 243 | 3.0 | 10.0 | 0.00 | 0.00 | 0.00 | 71 | 1005.1 |
| 20260505220901 | 85 | 320 | 2.0 | 10.0 | 0.00 | 0.00 | 0.00 | 70 | 1005.2 |
| 20260505220643 | 85 | 95 | 3.0 | 8.0 | 0.00 | 0.00 | 0.00 | 70 | 1005.2 |
| 20260505215901 | 85 | 130 | 3.0 | 7.0 | 0.00 | 0.00 | 0.00 | 70 | 1005.2 |
| 20260505215402 | 85 | 295 | 3.0 | 8.0 | 0.00 | 0.00 | 0.00 | 70 | 1005.4 |
| 20260505214901 | 84 | 269 | 4.0 | 8.0 | 0.00 | 0.00 | 0.00 | 71 | 1005.4 |
| 20260505214402 | 85 | 261 | 4.0 | 8.0 | 0.00 | 0.00 | 0.00 | 69 | 1005.4 |
| 20260505213902 | 85 | 271 | 3.0 | 7.0 | 0.00 | 0.00 | 0.00 | 68 | 1005.5 |
| 20260505213402 | 85 | 119 | 2.0 | 8.0 | 0.00 | 0.00 | 0.00 | 68 | 1005.5 |
| 20260505213144 | 85 | 225 | 3.0 | 11.0 | 0.00 | 0.00 | 0.00 | 69 | 1005.4 |
| 20260505212401 | 85 | 52 | 3.0 | 11.0 | 0.00 | 0.00 | 0.00 | 68 | 1005.6 |
| 20260505211901 | 85 | 146 | 3.0 | 12.0 | 0.00 | 0.00 | 0.00 | 69 | 1005.8 |